Time;durP1;ratioP1;P1;durP2;ratioP2;P2;SDS_P1;SDS_P2;PMS_P1;PMS_P2;Temp;Humidity;BMP_temperature;BMP_pressure;BME280_temperature;BME280_humidity;BME280_pressure;Samples;Min_cycle;Max_cycle;Signal;HPM_P1;HPM_P2
2020/12/22 00:00:05;;;;;;;69.93;25.40;;;;;;;5.91;69.99;95570.88;5033216;28;20211;-72
2020/12/22 00:02:30;;;;;;;52.67;22.23;;;;;;;6.04;69.20;95563.97;5032902;28;20182;-72
2020/12/22 00:04:56;;;;;;;53.77;22.37;;;;;;;5.84;69.73;95570.47;5033134;28;21037;-72
2020/12/22 00:07:21;;;;;;;68.70;25.10;;;;;;;5.96;69.05;95562.81;5032631;28;20654;-73
2020/12/22 00:09:47;;;;;;;57.70;22.63;;;;;;;5.90;69.25;95565.84;5032971;28;20251;-72
2020/12/22 00:12:16;;;;;;;61.23;24.23;;;;;;;5.89;69.91;95573.00;5032431;28;20175;-72
2020/12/22 00:14:42;;;;;;;62.87;23.43;;;;;;;6.08;68.97;95565.72;5032822;28;20674;-72
2020/12/22 00:17:07;;;;;;;55.90;23.77;;;;;;;6.06;69.03;95573.19;5032843;28;20575;-73
2020/12/22 00:19:33;;;;;;;59.87;22.47;;;;;;;6.01;69.39;95581.25;5032497;28;20579;-72
2020/12/22 00:21:58;;;;;;;66.03;24.20;;;;;;;6.05;69.94;95574.25;5032550;28;20230;-73
2020/12/22 00:24:24;;;;;;;66.20;24.33;;;;;;;6.03;69.98;95575.66;5032448;28;20176;-72
2020/12/22 00:26:49;;;;;;;57.23;24.30;;;;;;;6.08;69.10;95581.63;5032654;28;20285;-72
2020/12/22 00:29:15;;;;;;;56.63;24.47;;;;;;;5.91;69.28;95578.81;5032329;28;20188;-72
2020/12/22 00:31:41;;;;;;;56.87;21.67;;;;;;;5.92;69.98;95577.72;5032371;28;20207;-73
2020/12/22 00:34:06;;;;;;;56.00;23.00;;;;;;;6.00;69.62;95584.19;5032288;28;20238;-73
2020/12/22 00:36:32;;;;;;;62.10;23.70;;;;;;;5.98;69.63;95581.06;5032603;28;20695;-72
2020/12/22 00:38:57;;;;;;;69.90;23.53;;;;;;;6.09;69.27;95580.53;5032046;28;20698;-73
2020/12/22 00:41:23;;;;;;;53.47;22.47;;;;;;;6.18;68.35;95575.31;5032346;28;20173;-73
2020/12/22 00:43:48;;;;;;;60.60;22.07;;;;;;;6.21;68.50;95581.88;5030795;28;20250;-73
2020/12/22 00:46:14;;;;;;;61.67;24.77;;;;;;;6.08;69.22;95584.28;5032221;28;20235;-72
2020/12/22 00:48:43;;;;;;;60.70;23.03;;;;;;;6.05;69.17;95579.56;5032299;28;20177;-72
2020/12/22 00:51:13;;;;;;;71.73;23.47;;;;;;;6.00;69.81;95578.88;5031922;28;21310;-72
2020/12/22 00:53:41;;;;;;;67.07;26.33;;;;;;;5.96;69.98;95580.59;5032006;28;20575;-72
2020/12/22 00:56:10;;;;;;;80.30;26.83;;;;;;;5.86;69.96;95570.94;5030619;28;21020;-73
2020/12/22 00:58:35;;;;;;;54.40;25.00;;;;;;;5.94;70.44;95582.72;5032051;28;20582;-73
2020/12/22 01:01:01;;;;;;;74.27;25.27;;;;;;;5.97;70.21;95576.84;5031870;28;20954;-72
2020/12/22 01:03:26;;;;;;;64.57;27.87;;;;;;;6.05;70.18;95570.81;5031990;28;20258;-72
2020/12/22 01:05:52;;;;;;;69.07;26.10;;;;;;;5.95;70.44;95571.84;5031800;28;20168;-72
2020/12/22 01:08:17;;;;;;;75.33;29.07;;;;;;;6.07;70.06;95577.41;5031785;28;20624;-72
2020/12/22 01:10:43;;;;;;;82.73;29.80;;;;;;;6.06;70.37;95581.16;5031792;28;20275;-72
2020/12/22 01:13:08;;;;;;;68.20;26.07;;;;;;;6.10;70.25;95578.66;5031839;28;20172;-73
2020/12/22 01:15:34;;;;;;;58.33;26.03;;;;;;;6.03;70.61;95579.09;5031805;28;20185;-72
2020/12/22 01:17:59;;;;;;;64.20;27.57;;;;;;;6.08;70.28;95581.63;5031520;28;20177;-72
2020/12/22 01:20:25;;;;;;;73.53;28.90;;;;;;;6.10;70.53;95578.66;5031746;28;20179;-72
2020/12/22 01:22:50;;;;;;;64.67;27.60;;;;;;;6.11;70.40;95574.94;5031210;28;20211;-72
2020/12/22 01:25:16;;;;;;;61.83;27.60;;;;;;;6.01;70.34;95575.19;5031053;28;20200;-72
2020/12/22 01:27:41;;;;;;;62.07;26.57;;;;;;;6.02;70.77;95577.53;5031167;28;20294;-72
2020/12/22 01:30:07;;;;;;;64.33;26.10;;;;;;;6.01;70.65;95573.31;5031530;28;20200;-72
2020/12/22 01:32:33;;;;;;;69.37;26.63;;;;;;;5.88;71.02;95576.72;5031364;28;20204;-72
2020/12/22 01:34:58;;;;;;;68.90;27.47;;;;;;;5.92;71.26;95577.72;5031581;28;20180;-72
2020/12/22 01:37:24;;;;;;;62.30;26.57;;;;;;;5.96;70.46;95581.38;5031561;28;20566;-72
2020/12/22 01:39:49;;;;;;;59.37;27.37;;;;;;;6.07;70.37;95580.06;5029965;28;20184;-72
2020/12/22 01:42:15;;;;;;;56.63;25.87;;;;;;;6.08;70.37;95571.03;5031498;28;20171;-72
2020/12/22 01:44:40;;;;;;;66.80;26.97;;;;;;;6.20;69.68;95565.19;5031171;28;20169;-72
2020/12/22 01:47:06;;;;;;;59.93;25.33;;;;;;;6.06;69.48;95572.38;5031547;28;20693;-73
2020/12/22 01:49:31;;;;;;;68.73;28.37;;;;;;;6.10;69.71;95568.84;5031150;28;20219;-73
2020/12/22 01:51:57;;;;;;;66.17;26.33;;;;;;;5.98;70.95;95565.94;5030257;28;20259;-73
2020/12/22 01:54:23;;;;;;;64.43;26.03;;;;;;;5.90;70.63;95565.84;5030969;28;20176;-72
2020/12/22 01:56:49;;;;;;;63.07;27.13;;;;;;;5.82;71.25;95573.41;5031300;28;20187;-72
2020/12/22 01:59:17;;;;;;;54.43;23.70;;;;;;;5.73;71.73;95575.19;5031541;28;20587;-72
2020/12/22 02:01:42;;;;;;;61.87;26.00;;;;;;;5.85;70.70;95569.38;5031207;28;20667;-72
2020/12/22 02:04:09;;;;;;;55.67;25.23;;;;;;;5.85;70.99;95572.03;5031273;28;20678;-72
2020/12/22 02:06:34;;;;;;;54.37;22.33;;;;;;;5.58;71.14;95573.63;5031122;28;20605;-72
2020/12/22 02:09:01;;;;;;;38.80;19.37;;;;;;;5.73;70.90;95577.06;5031237;28;20589;-72
2020/12/22 02:11:30;;;;;;;58.37;20.63;;;;;;;5.82;70.32;95567.31;5030829;28;20455;-72
2020/12/22 02:13:56;;;;;;;47.63;21.33;;;;;;;5.78;70.46;95545.94;5030028;28;20583;-72
2020/12/22 02:16:21;;;;;;;42.53;20.00;;;;;;;5.70;70.80;95564.41;5031020;28;20963;-73
2020/12/22 02:18:47;;;;;;;47.60;22.27;;;;;;;5.78;70.89;95553.09;5031181;28;20678;-72
2020/12/22 02:21:13;;;;;;;58.43;25.03;;;;;;;5.49;72.09;95564.78;5031041;28;20181;-73
2020/12/22 02:23:39;;;;;;;60.40;24.77;;;;;;;5.52;71.85;95561.56;5029915;28;20666;-72
2020/12/22 02:26:04;;;;;;;56.53;25.13;;;;;;;5.71;70.71;95564.09;5030565;28;20195;-71
2020/12/22 02:28:30;;;;;;;53.67;24.33;;;;;;;5.68;71.12;95558.63;5029986;28;20647;-72
2020/12/22 02:30:55;;;;;;;55.40;22.57;;;;;;;5.63;71.08;95554.22;5030908;28;20703;-73
2020/12/22 02:33:21;;;;;;;50.40;22.87;;;;;;;5.58;71.09;95555.09;5030864;28;20553;-72
2020/12/22 02:35:46;;;;;;;55.00;24.30;;;;;;;5.57;71.55;95545.56;5031956;28;20262;-72
2020/12/22 02:38:12;;;;;;;53.03;24.13;;;;;;;5.72;71.26;95548.97;5033460;28;20169;-72
2020/12/22 02:40:37;;;;;;;53.03;23.13;;;;;;;5.48;71.73;95552.63;5034605;28;20169;-72
2020/12/22 02:43:08;;;;;;;55.27;24.67;;;;;;;5.73;71.37;95547.91;5034384;28;20648;-72
2020/12/22 02:45:34;;;;;;;52.08;22.42;;;;;;;5.69;71.22;95547.72;5034586;28;20176;-72
2020/12/22 02:47:59;;;;;;;54.73;22.33;;;;;;;5.77;70.72;95552.31;5034230;28;20204;-73
2020/12/22 02:50:25;;;;;;;49.60;21.77;;;;;;;5.87;70.51;95543.34;5034398;28;20283;-72
2020/12/22 02:52:50;;;;;;;48.00;21.10;;;;;;;5.77;70.22;95544.34;5034247;28;20200;-73
2020/12/22 02:55:16;;;;;;;42.47;20.73;;;;;;;5.68;71.04;95537.41;5034381;28;20183;-72
2020/12/22 02:57:41;;;;;;;38.10;20.53;;;;;;;5.76;70.02;95539.34;5034387;28;20821;-72
2020/12/22 03:00:07;;;;;;;41.13;20.83;;;;;;;5.71;70.87;95540.25;5034043;28;20177;-72
2020/12/22 03:02:32;;;;;;;39.47;18.37;;;;;;;5.73;69.57;95538.09;5034273;28;20533;-72
2020/12/22 03:04:58;;;;;;;47.53;17.90;;;;;;;5.64;70.30;95531.13;5034048;28;20176;-72
2020/12/22 03:07:23;;;;;;;39.20;16.20;;;;;;;5.55;71.01;95533.69;5034201;28;20199;-72
2020/12/22 03:09:49;;;;;;;36.03;16.70;;;;;;;5.57;71.02;95544.78;5033840;28;20222;-73
2020/12/22 03:12:14;;;;;;;45.73;18.50;;;;;;;5.57;70.58;95534.19;5032460;28;20651;-72
2020/12/22 03:14:40;;;;;;;41.17;18.33;;;;;;;5.66;70.40;95535.03;5033810;28;20184;-72
2020/12/22 03:17:05;;;;;;;37.13;18.03;;;;;;;5.74;70.69;95536.22;5034203;28;20208;-72
2020/12/22 03:19:31;;;;;;;40.83;18.17;;;;;;;5.77;70.22;95528.44;5033923;28;20179;-72
2020/12/22 03:21:56;;;;;;;37.63;18.57;;;;;;;5.75;70.60;95527.97;5033706;28;20647;-72
2020/12/22 03:24:22;;;;;;;40.60;19.03;;;;;;;5.86;69.91;95520.59;5033909;28;20173;-72
2020/12/22 03:26:47;;;;;;;41.17;19.63;;;;;;;5.59;70.04;95521.44;5022629;28;20237;-72
2020/12/22 03:29:13;;;;;;;41.47;18.33;;;;;;;5.58;70.32;95515.34;5014023;28;20188;-72
2020/12/22 03:31:38;;;;;;;37.87;17.70;;;;;;;5.69;69.30;95517.78;5013496;28;20301;-72
2020/12/22 03:34:04;;;;;;;34.00;17.13;;;;;;;5.75;70.11;95516.59;5013800;28;20227;-72
2020/12/22 03:36:29;;;;;;;32.33;16.17;;;;;;;5.75;70.11;95521.91;5013762;28;20259;-71
2020/12/22 03:38:55;;;;;;;38.00;16.30;;;;;;;5.91;68.85;95525.81;5013738;28;20534;-72
2020/12/22 03:41:21;;;;;;;38.53;17.43;;;;;;;5.88;68.72;95517.63;5013477;28;20184;-72
2020/12/22 03:43:46;;;;;;;44.23;21.30;;;;;;;5.99;69.18;95529.59;5013429;28;20185;-72
2020/12/22 03:46:12;;;;;;;47.13;22.47;;;;;;;5.94;68.97;95517.25;5013604;28;20730;-72
2020/12/22 03:48:37;;;;;;;44.43;21.73;;;;;;;5.98;69.16;95523.53;5012820;28;20231;-72
2020/12/22 03:51:03;;;;;;;43.20;20.27;;;;;;;6.00;68.85;95521.34;5013403;28;20578;-71
2020/12/22 03:53:29;;;;;;;41.70;20.63;;;;;;;5.94;69.26;95524.41;5013248;28;20180;-72
2020/12/22 03:55:55;;;;;;;45.77;22.70;;;;;;;5.86;69.40;95512.63;5013536;28;20177;-73
2020/12/22 03:58:21;;;;;;;52.17;23.47;;;;;;;5.89;69.67;95519.97;5011742;28;20603;-74
2020/12/22 04:00:46;;;;;;;56.40;26.07;;;;;;;6.00;69.68;95516.03;5013540;28;20591;-73
2020/12/22 04:03:12;;;;;;;52.90;23.53;;;;;;;6.00;69.04;95513.38;5012200;28;20215;-73
2020/12/22 04:05:37;;;;;;;53.43;23.90;;;;;;;6.00;69.77;95512.63;5013277;28;20173;-73
2020/12/22 04:08:03;;;;;;;63.10;26.70;;;;;;;5.86;69.03;95504.69;5013444;28;20177;-72
2020/12/22 04:10:28;;;;;;;56.07;26.47;;;;;;;5.78;71.04;95513.34;5012932;28;20196;-73
2020/12/22 04:12:54;;;;;;;50.47;23.73;;;;;;;5.92;70.03;95513.34;5013136;28;20637;-72
2020/12/22 04:15:20;;;;;;;56.77;26.10;;;;;;;5.87;70.36;95526.66;5012827;28;20184;-73
2020/12/22 04:17:45;;;;;;;55.47;25.50;;;;;;;5.84;70.01;95509.50;5013219;28;20169;-72
2020/12/22 04:20:11;;;;;;;58.20;25.97;;;;;;;5.93;69.29;95517.56;5012890;28;20611;-73
2020/12/22 04:22:36;;;;;;;68.10;28.45;;;;;;;6.87;92.17;95519.25;5012213;28;20710;-70
2020/12/22 04:25:03;;;;;;;54.63;26.00;;;;;;;6.63;71.79;95517.75;5012801;28;20173;-73
2020/12/22 04:27:28;;;;;;;38.40;21.40;;;;;;;9.33;87.97;95527.44;5012844;28;20231;-72
2020/12/22 04:29:53;;;;;;;43.00;21.13;;;;;;;10.15;65.23;95519.84;5012298;28;20674;-77
2020/12/22 04:32:19;;;;;;;53.77;25.13;;;;;;;8.34;62.92;95524.84;5012897;28;20177;-73
2020/12/22 04:34:45;;;;;;;57.03;24.73;;;;;;;7.29;64.24;95527.69;5012843;28;20707;-72
2020/12/22 04:37:10;;;;;;;48.73;22.60;;;;;;;10.46;78.53;95529.38;5012496;28;20209;-71
2020/12/22 04:39:36;;;;;;;46.83;22.30;;;;;;;11.14;60.97;95521.75;5012826;28;20180;-71
2020/12/22 04:42:01;;;;;;;46.00;21.17;;;;;;;11.28;59.35;95532.09;5012435;28;20169;-72
2020/12/22 04:44:27;;;;;;;56.53;28.05;;;;;;;9.50;56.59;95524.69;4993968;28;20753;-73
2020/12/22 04:46:53;;;;;;;62.40;26.77;;;;;;;8.08;60.73;95522.22;5012264;28;20219;-73
2020/12/22 04:49:23;;;;;;;61.05;31.00;;;;;;;7.65;62.47;95524.81;5011533;28;20722;-73
2020/12/22 04:51:52;;;;;;;58.03;26.97;;;;;;;7.39;63.51;95522.09;5012280;28;20205;-73
2020/12/22 04:54:18;;;;;;;59.03;26.70;;;;;;;7.09;64.67;95534.34;5012542;28;20591;-73
2020/12/22 04:56:47;;;;;;;59.90;25.70;;;;;;;6.82;65.87;95530.00;5012212;28;20633;-73
2020/12/22 04:59:16;;;;;;;58.17;24.43;;;;;;;6.73;65.83;95529.16;5009884;28;20583;-73
2020/12/22 05:01:42;;;;;;;56.20;25.00;;;;;;;6.53;66.94;95517.22;5012008;28;20588;-73
2020/12/22 05:04:11;;;;;;;50.43;24.50;;;;;;;6.52;66.96;95537.66;5011173;28;20608;-73
2020/12/22 05:06:37;;;;;;;64.93;25.37;;;;;;;6.42;67.79;95537.13;5012131;28;20591;-73
2020/12/22 05:09:03;;;;;;;62.90;26.30;;;;;;;6.32;68.31;95533.59;5012026;28;20622;-73
2020/12/22 05:11:28;;;;;;;65.40;27.40;;;;;;;6.49;67.53;95538.25;5012002;28;20263;-73
2020/12/22 05:13:54;;;;;;;73.60;27.73;;;;;;;6.49;68.01;95537.47;5010530;28;20184;-73
2020/12/22 05:16:26;;;;;;;80.43;27.43;;;;;;;6.31;68.31;95533.91;4994538;28;20173;-73
2020/12/22 05:18:54;;;;;;;72.77;27.40;;;;;;;6.29;68.97;95538.75;5011908;28;20189;-73
2020/12/22 05:21:20;;;;;;;72.10;27.17;;;;;;;5.99;69.46;95530.38;5011966;28;20623;-73
2020/12/22 05:23:47;;;;;;;69.73;27.27;;;;;;;6.08;69.32;95525.16;5010782;28;20719;-73
2020/12/22 05:26:13;;;;;;;67.60;26.53;;;;;;;6.13;69.11;95525.06;5011626;28;20758;-73
2020/12/22 05:28:38;;;;;;;72.90;29.20;;;;;;;6.13;69.07;95527.69;5009870;28;20600;-73
2020/12/22 05:31:04;;;;;;;65.60;27.00;;;;;;;6.08;69.83;95523.28;5011733;28;20208;-72
2020/12/22 05:33:29;;;;;;;70.30;26.87;;;;;;;6.13;69.54;95530.34;4977812;28;20623;-72
2020/12/22 05:35:55;;;;;;;62.90;26.10;;;;;;;6.12;69.42;95525.34;5011810;28;20620;-72
2020/12/22 05:38:20;;;;;;;78.07;27.70;;;;;;;6.17;69.43;95533.94;4994344;28;20667;-73
2020/12/22 05:40:46;;;;;;;62.33;25.03;;;;;;;5.93;69.90;95525.50;5010424;28;20206;-72
2020/12/22 05:43:12;;;;;;;70.00;26.53;;;;;;;5.92;70.36;95537.97;5011633;28;20205;-73
2020/12/22 05:45:40;;;;;;;60.77;27.60;;;;;;;6.13;69.34;95534.88;5011506;28;20263;-73
2020/12/22 05:48:06;;;;;;;66.47;25.93;;;;;;;6.04;69.73;95540.88;5011861;28;20260;-73
2020/12/22 05:50:32;;;;;;;62.33;26.37;;;;;;;5.92;70.80;95537.97;5011407;28;20764;-72
2020/12/22 05:53:00;;;;;;;71.63;27.23;;;;;;;5.76;71.07;95542.00;5011548;28;21016;-73
2020/12/22 05:55:26;;;;;;;66.17;26.00;;;;;;;5.93;71.27;95538.75;5010062;28;20252;-73
2020/12/22 05:58:09;;;;;;;62.73;26.37;;;;;;;5.91;70.84;95549.66;5011570;28;20576;-73
2020/12/22 06:00:35;;;;;;;54.90;24.67;;;;;;;5.99;70.35;95550.81;5010076;28;20591;-73
2020/12/22 06:03:10;;;;;;;61.37;24.50;;;;;;;5.99;70.15;95545.50;5011565;28;21221;-73
2020/12/22 06:05:38;;;;;;;64.13;24.60;;;;;;;5.90;70.42;95545.41;5011309;28;20599;-73
2020/12/22 06:08:04;;;;;;;64.80;25.57;;;;;;;5.90;70.20;95542.78;5010316;28;20933;-73
2020/12/22 06:10:30;;;;;;;55.67;26.07;;;;;;;5.90;70.46;95540.13;5011677;28;20638;-73
2020/12/22 06:12:57;;;;;;;60.90;25.17;;;;;;;5.96;70.56;95531.00;5015430;28;20584;-73
2020/12/22 06:15:23;;;;;;;63.77;27.33;;;;;;;5.96;70.67;95533.66;5015181;28;20172;-73
2020/12/22 06:17:49;;;;;;;62.73;25.37;;;;;;;5.96;69.76;95540.81;5015338;28;20589;-73
2020/12/22 06:20:16;;;;;;;58.53;25.43;;;;;;;6.08;69.81;95538.41;5015325;28;21169;-74
2020/12/22 06:22:41;;;;;;;53.90;23.60;;;;;;;5.99;70.48;95542.88;4997705;28;20199;-73
2020/12/22 06:25:07;;;;;;;66.90;26.80;;;;;;;5.67;71.54;95538.47;4997735;28;20580;-73
2020/12/22 06:27:33;;;;;;;68.53;27.70;;;;;;;5.85;70.65;95529.63;5013433;28;20644;-73
2020/12/22 06:29:58;;;;;;;59.57;27.40;;;;;;;5.78;71.13;95529.22;5014931;28;20253;-73
2020/12/22 06:32:27;;;;;;;60.50;24.77;;;;;;;6.01;70.57;95536.19;5014947;28;20177;-73
2020/12/22 06:34:54;;;;;;;60.00;25.20;;;;;;;6.15;70.12;95524.75;5015147;28;20200;-74
2020/12/22 06:37:24;;;;;;;60.33;25.83;;;;;;;6.24;68.93;95536.22;5014859;28;20591;-73
2020/12/22 06:39:50;;;;;;;60.20;24.30;;;;;;;5.99;70.12;95525.09;5014861;28;20637;-73
2020/12/22 06:42:31;;;;;;;67.53;27.60;;;;;;;6.04;70.12;95527.63;5014359;28;20592;-73
2020/12/22 06:45:21;;;;;;;64.60;26.33;;;;;;;6.04;70.35;95522.31;5014739;28;20579;-73
2020/12/22 06:47:46;;;;;;;64.40;25.37;;;;;;;6.14;69.62;95523.19;5013392;28;20615;-73
2020/12/22 06:50:12;;;;;;;62.73;25.50;;;;;;;6.06;70.63;95512.22;5014695;28;20663;-73
2020/12/22 06:52:42;;;;;;;57.60;25.27;;;;;;;6.12;69.83;95517.38;5014399;28;20180;-73
2020/12/22 06:55:08;;;;;;;58.50;22.90;;;;;;;6.16;69.29;95523.66;5014605;28;20173;-73
2020/12/22 06:57:50;;;;;;;50.30;23.07;;;;;;;6.08;69.90;95512.69;5014438;28;21157;-73
2020/12/22 07:00:27;;;;;;;58.87;24.10;;;;;;;6.17;69.53;95504.00;5014613;28;20969;-73
2020/12/22 07:03:15;;;;;;;61.17;23.03;;;;;;;6.11;69.87;95511.28;5014222;28;20587;-73
2020/12/22 07:05:47;;;;;;;58.83;24.93;;;;;;;6.13;69.80;95511.00;5014328;28;20955;-73
2020/12/22 07:08:13;;;;;;;51.87;23.90;;;;;;;6.22;69.47;95511.84;5014521;28;21048;-73
2020/12/22 07:10:50;;;;;;;59.00;22.97;;;;;;;6.23;69.55;95513.41;5014104;28;20635;-73
2020/12/22 07:13:16;;;;;;;51.77;23.13;;;;;;;6.21;69.77;95520.88;5014288;28;20181;-74
2020/12/22 07:15:48;;;;;;;59.93;22.73;;;;;;;6.16;70.64;95515.69;4996536;28;20757;-74
2020/12/22 07:18:28;;;;;;;56.17;23.30;;;;;;;6.24;70.45;95505.16;5014238;28;20691;-75
2020/12/22 07:20:54;;;;;;;53.37;22.30;;;;;;;6.28;69.75;95506.09;5012820;28;20583;-74
2020/12/22 07:23:20;;;;;;;49.53;22.93;;;;;;;6.28;70.31;95511.41;5011836;28;20615;-73
2020/12/22 07:25:45;;;;;;;44.60;20.80;;;;;;;6.39;69.73;95516.47;5013857;28;20200;-74
2020/12/22 07:28:11;;;;;;;50.70;22.07;;;;;;;6.34;69.81;95520.03;5013920;28;20255;-74
2020/12/22 07:30:36;;;;;;;45.63;21.47;;;;;;;6.19;69.30;95513.25;5012413;28;20215;-73
2020/12/22 07:33:03;;;;;;;47.87;21.23;;;;;;;6.21;68.88;95507.63;5013984;28;20307;-73
2020/12/22 07:35:28;;;;;;;45.80;20.13;;;;;;;6.13;69.45;95524.28;5014034;28;20188;-73
2020/12/22 07:38:03;;;;;;;44.43;19.67;;;;;;;6.17;69.68;95514.63;5013582;28;20691;-74
2020/12/22 07:40:29;;;;;;;49.80;20.50;;;;;;;6.35;67.66;95508.38;5013917;28;20169;-73
2020/12/22 07:43:08;;;;;;;41.67;19.37;;;;;;;6.21;68.81;95516.38;5013432;28;20964;-73
2020/12/22 07:45:33;;;;;;;42.30;16.83;;;;;;;6.39;67.70;95514.59;5013726;28;20169;-73
2020/12/22 07:47:59;;;;;;;35.57;17.03;;;;;;;6.40;67.72;95513.53;5013398;28;20619;-73
2020/12/22 07:50:24;;;;;;;35.40;15.20;;;;;;;6.46;67.41;95515.00;5013533;28;20224;-72
2020/12/22 07:52:59;;;;;;;33.67;14.93;;;;;;;6.46;66.75;95512.34;5013322;28;20528;-73
2020/12/22 07:55:25;;;;;;;34.13;15.83;;;;;;;6.37;67.19;95508.84;5013474;28;20175;-73
2020/12/22 07:57:51;;;;;;;30.50;15.17;;;;;;;6.40;67.34;95512.75;5013029;28;21034;-73
2020/12/22 08:00:16;;;;;;;33.60;15.50;;;;;;;6.39;67.35;95519.13;5012269;28;20226;-73
2020/12/22 08:02:42;;;;;;;32.27;15.17;;;;;;;6.53;66.73;95525.94;5013139;28;20638;-72
2020/12/22 08:05:11;;;;;;;47.07;18.53;;;;;;;6.61;65.71;95519.91;5011955;28;20607;-72
2020/12/22 08:07:38;;;;;;;43.10;17.83;;;;;;;6.63;66.79;95533.66;5012952;28;20546;-73
2020/12/22 08:10:11;;;;;;;46.43;21.10;;;;;;;6.54;67.37;95524.84;5013161;28;20954;-73
2020/12/22 08:12:37;;;;;;;46.67;20.10;;;;;;;6.25;68.69;95524.50;5012812;28;20582;-74
2020/12/22 08:15:03;;;;;;;49.90;19.63;;;;;;;6.18;68.53;95532.91;5011333;28;21181;-73
2020/12/22 08:17:29;;;;;;;45.23;21.20;;;;;;;6.17;69.23;95519.91;5012658;28;20671;-73
2020/12/22 08:19:54;;;;;;;58.20;20.93;;;;;;;5.97;69.79;95523.84;5011814;28;20619;-73
2020/12/22 08:22:20;;;;;;;49.17;21.10;;;;;;;6.12;69.45;95518.19;4995446;28;20177;-73
2020/12/22 08:24:45;;;;;;;46.30;20.47;;;;;;;6.21;68.99;95518.22;4995452;28;20193;-74
2020/12/22 08:27:11;;;;;;;52.43;20.87;;;;;;;6.20;69.86;95496.25;5011467;28;20216;-73
2020/12/22 08:29:38;;;;;;;48.43;23.10;;;;;;;6.41;68.17;95499.19;5011283;28;20220;-72
2020/12/22 08:32:04;;;;;;;47.40;19.90;;;;;;;6.36;68.73;95501.97;5012834;28;20220;-73
2020/12/22 08:34:29;;;;;;;51.53;21.40;;;;;;;6.38;68.70;95499.00;5011086;28;21074;-73
2020/12/22 08:36:55;;;;;;;54.43;22.73;;;;;;;6.37;68.56;95492.91;5012726;28;20320;-73
2020/12/22 08:39:25;;;;;;;54.63;24.90;;;;;;;6.40;69.35;95491.50;5010797;28;20268;-73
2020/12/22 08:41:52;;;;;;;54.73;22.10;;;;;;;6.77;68.54;95490.31;5012565;28;20165;-72
2020/12/22 08:44:18;;;;;;;50.50;20.30;;;;;;;6.86;67.77;95488.50;5011374;28;20969;-73
2020/12/22 08:46:44;;;;;;;41.13;19.80;;;;;;;7.04;66.85;95489.34;5012514;28;20618;-73
2020/12/22 08:49:11;;;;;;;37.50;17.70;;;;;;;7.12;66.08;95493.88;5011409;28;20180;-73
2020/12/22 08:51:37;;;;;;;43.90;21.70;;;;;;;7.10;66.59;95494.19;5012159;28;20642;-73
2020/12/22 08:54:02;;;;;;;43.07;19.50;;;;;;;7.04;65.54;95492.00;5012437;28;21188;-73
2020/12/22 08:56:28;;;;;;;55.93;22.97;;;;;;;7.31;65.32;95502.41;5012108;28;20592;-73
2020/12/22 08:59:03;;;;;;;50.67;21.43;;;;;;;7.30;64.95;95500.84;5012405;28;20172;-73
2020/12/22 09:01:30;;;;;;;45.83;21.97;;;;;;;7.07;65.80;95502.00;5012035;28;20177;-73
2020/12/22 09:03:59;;;;;;;47.73;21.77;;;;;;;6.99;66.26;95505.41;5011075;28;20617;-73
2020/12/22 09:06:34;;;;;;;48.27;22.50;;;;;;;6.89;66.16;95496.63;5011942;28;20592;-73
2020/12/22 09:09:01;;;;;;;44.57;21.73;;;;;;;6.73;66.06;95503.41;5011166;28;20603;-73
2020/12/22 09:11:26;;;;;;;47.73;21.80;;;;;;;6.58;67.39;95503.81;5011813;28;21204;-73
2020/12/22 09:14:05;;;;;;;51.13;22.77;;;;;;;6.54;67.48;95506.28;5012240;28;20630;-73
2020/12/22 09:16:47;;;;;;;52.30;25.30;;;;;;;6.44;68.09;95487.97;5010867;28;20234;-73
2020/12/22 09:19:14;;;;;;;59.57;27.23;;;;;;;6.50;67.77;95488.63;5011959;28;20607;-73
2020/12/22 09:21:39;;;;;;;56.37;26.00;;;;;;;6.44;67.36;95472.03;5011660;28;20914;-73
2020/12/22 09:24:06;;;;;;;65.73;26.07;;;;;;;6.31;67.95;95486.94;5011919;28;20567;-73
2020/12/22 09:26:31;;;;;;;59.87;29.13;;;;;;;6.21;68.19;95468.63;5011735;28;20640;-73
2020/12/22 09:28:57;;;;;;;69.80;29.33;;;;;;;6.24;68.55;95488.47;5011891;28;20602;-72
2020/12/22 09:31:26;;;;;;;62.30;28.73;;;;;;;6.30;69.21;95481.97;5011616;28;20259;-73
2020/12/22 09:33:51;;;;;;;61.43;28.40;;;;;;;6.30;68.51;95488.03;5011829;28;20177;-73
2020/12/22 09:36:17;;;;;;;61.67;26.67;;;;;;;6.29;68.77;95485.69;5011583;28;21208;-74
2020/12/22 09:38:42;;;;;;;60.63;25.80;;;;;;;6.32;69.43;95464.66;5011723;28;20183;-73
2020/12/22 09:41:08;;;;;;;58.13;29.77;;;;;;;6.50;68.65;95476.13;5011511;28;20169;-73
2020/12/22 09:43:33;;;;;;;61.53;27.73;;;;;;;6.58;68.62;95479.94;5012088;28;20177;-73
2020/12/22 09:45:59;;;;;;;56.20;26.70;;;;;;;6.70;68.60;95471.41;5009086;28;20220;-73
2020/12/22 09:48:24;;;;;;;58.23;28.33;;;;;;;6.79;68.14;95477.50;4999443;28;20192;-73
2020/12/22 09:50:50;;;;;;;58.80;28.60;;;;;;;6.84;67.29;95470.19;5011225;28;20228;-73
2020/12/22 09:53:15;;;;;;;75.33;30.50;;;;;;;6.81;67.11;95470.81;5011198;28;20207;-73
2020/12/22 09:55:41;;;;;;;59.83;30.47;;;;;;;6.89;66.91;95472.72;5009917;28;20645;-72
2020/12/22 09:58:06;;;;;;;66.90;29.33;;;;;;;6.75;67.32;95480.00;5010859;28;20173;-72
2020/12/22 10:00:32;;;;;;;68.33;30.57;;;;;;;6.67;67.90;95469.34;5010954;28;20216;-72
2020/12/22 10:02:57;;;;;;;72.13;32.33;;;;;;;6.49;68.25;95479.09;5010971;28;20208;-72
2020/12/22 10:05:23;;;;;;;75.17;32.53;;;;;;;6.60;67.54;95475.09;5011287;28;20569;-73
2020/12/22 10:07:48;;;;;;;67.00;31.20;;;;;;;6.58;68.58;95472.75;5011060;28;20664;-74
2020/12/22 10:10:14;;;;;;;68.87;31.30;;;;;;;6.73;67.80;95470.78;5010826;28;20204;-73
2020/12/22 10:12:39;;;;;;;70.97;31.40;;;;;;;6.82;67.71;95445.84;5011257;28;20235;-73
2020/12/22 10:15:05;;;;;;;72.67;32.90;;;;;;;6.96;67.27;95456.38;5010974;28;20201;-73
2020/12/22 10:17:31;;;;;;;85.30;35.40;;;;;;;6.89;67.15;95454.13;5011406;28;20184;-74
2020/12/22 10:19:57;;;;;;;71.60;32.37;;;;;;;6.98;66.30;95451.53;5010797;28;20180;-73
2020/12/22 10:22:22;;;;;;;80.23;35.07;;;;;;;6.97;66.87;95447.31;5011102;28;20564;-73
2020/12/22 10:24:48;;;;;;;80.30;33.17;;;;;;;6.92;66.77;95439.47;5010846;28;20561;-73
2020/12/22 10:27:13;;;;;;;72.47;33.40;;;;;;;7.04;66.82;95455.59;5011362;28;20612;-72
2020/12/22 10:29:39;;;;;;;64.33;30.07;;;;;;;7.06;67.18;95442.00;5010808;28;20260;-72
2020/12/22 10:32:04;;;;;;;71.93;34.17;;;;;;;7.21;67.37;95443.47;5010620;28;20620;-72
2020/12/22 10:34:30;;;;;;;70.50;31.67;;;;;;;7.19;66.29;95443.00;5010880;28;20173;-73
2020/12/22 10:36:56;;;;;;;62.03;31.33;;;;;;;7.19;66.74;95438.47;5011072;28;20177;-73
2020/12/22 10:39:22;;;;;;;71.77;32.63;;;;;;;7.45;66.26;95446.47;5011110;28;20161;-73
2020/12/22 10:41:48;;;;;;;75.40;32.00;;;;;;;7.35;65.62;95436.94;5010562;28;20575;-72
2020/12/22 10:44:13;;;;;;;63.63;31.87;;;;;;;7.26;65.94;95433.47;5010890;28;20178;-72
2020/12/22 10:46:39;;;;;;;62.30;31.60;;;;;;;7.32;65.72;95444.72;5010682;28;20582;-71
2020/12/22 10:49:04;;;;;;;64.87;30.40;;;;;;;7.30;66.25;95439.75;5010875;28;20232;-72
2020/12/22 10:51:31;;;;;;;69.17;30.47;;;;;;;7.35;65.92;95436.13;5010397;28;20201;-73
2020/12/22 10:53:57;;;;;;;69.47;32.03;;;;;;;7.08;66.55;95430.00;5010864;28;20240;-72
2020/12/22 10:56:23;;;;;;;68.27;31.60;;;;;;;7.22;66.62;95443.16;5011053;28;20583;-72
2020/12/22 10:58:48;;;;;;;69.10;30.80;;;;;;;7.36;66.48;95440.38;5014205;28;21009;-73
2020/12/22 11:01:14;;;;;;;73.03;33.00;;;;;;;7.25;66.10;95426.59;5014230;28;20445;-72
2020/12/22 11:03:41;;;;;;;81.07;32.70;;;;;;;7.34;65.22;95413.31;5014004;28;20260;-72
2020/12/22 11:06:19;;;;;;;69.27;31.97;;;;;;;7.11;65.83;95402.81;5014242;28;20220;-72
2020/12/22 11:08:45;;;;;;;74.60;32.60;;;;;;;7.12;65.85;95412.34;5013861;28;20661;-72
2020/12/22 11:11:11;;;;;;;71.43;33.93;;;;;;;7.12;66.38;95408.91;5013933;28;20623;-73
2020/12/22 11:13:37;;;;;;;70.93;32.67;;;;;;;7.19;65.81;95403.94;5013712;28;20598;-72
2020/12/22 11:16:05;;;;;;;73.43;34.10;;;;;;;7.07;66.02;95409.03;5012793;28;20181;-73
2020/12/22 11:18:31;;;;;;;73.63;33.37;;;;;;;6.99;67.51;95396.53;5013948;28;20528;-73
2020/12/22 11:20:56;;;;;;;76.70;32.70;;;;;;;6.89;67.98;95387.78;5012962;28;20611;-73